createdAt,value
2022-12-12T00:00:30.853Z,50.26
2022-12-12T00:07:16.240Z,49.95
2022-12-12T00:14:04.214Z,49.90
2022-12-12T00:20:55.335Z,50.27
2022-12-12T00:27:41.121Z,50.03
2022-12-12T00:34:29.448Z,50.06
2022-12-12T00:41:15.459Z,49.91
2022-12-12T00:48:00.880Z,49.89
2022-12-12T00:54:48.886Z,49.93
2022-12-12T01:01:36.283Z,49.89
2022-12-12T01:08:21.982Z,49.68
2022-12-12T01:15:13.348Z,49.98
2022-12-12T01:21:59.214Z,49.64
2022-12-12T01:28:45.295Z,49.78
2022-12-12T01:35:34.500Z,49.80
2022-12-12T01:42:22.606Z,49.66
2022-12-12T01:49:16.690Z,49.80
2022-12-12T01:56:12.337Z,49.82
2022-12-12T02:02:59.295Z,49.66
2022-12-12T02:09:44.626Z,49.26
2022-12-12T02:16:58.536Z,49.90
2022-12-12T02:24:47.490Z,49.77
2022-12-12T02:31:43.842Z,49.94
2022-12-12T02:38:36.652Z,49.68
2022-12-12T02:45:31.655Z,49.83
2022-12-12T02:52:20.624Z,49.94
2022-12-12T02:59:06.087Z,50.15
2022-12-12T03:06:22.476Z,50.26
2022-12-12T03:13:15.235Z,50.33
2022-12-12T03:20:09.718Z,50.28
2022-12-12T03:27:01.806Z,50.40
2022-12-12T03:33:55.019Z,50.62
2022-12-12T03:40:47.723Z,50.70
2022-12-12T04:01:00.937Z,50.80
2022-12-12T04:07:51.001Z,50.81
2022-12-12T04:15:05.547Z,51.00
2022-12-12T04:22:12.945Z,51.32
2022-12-12T04:29:18.775Z,51.43
2022-12-12T04:36:05.789Z,51.51
2022-12-12T04:43:01.445Z,51.47
2022-12-12T04:49:50.705Z,51.46
2022-12-12T04:56:39.786Z,51.37
2022-12-12T05:03:39.196Z,51.52
2022-12-12T05:10:25.185Z,51.50
2022-12-12T05:17:16.322Z,51.41
2022-12-12T05:24:04.301Z,51.32
2022-12-12T05:30:49.712Z,51.30
2022-12-12T05:37:35.702Z,51.19
2022-12-12T05:44:23.794Z,51.29
2022-12-12T05:51:09.819Z,51.24
2022-12-12T05:57:55.195Z,51.33
2022-12-12T06:04:44.648Z,51.51
2022-12-12T06:11:30.014Z,51.11
2022-12-12T06:18:15.415Z,51.29
2022-12-12T06:25:03.412Z,51.30
2022-12-12T06:31:48.895Z,51.31
2022-12-12T06:38:35.175Z,51.31
2022-12-12T06:45:23.687Z,51.27
2022-12-12T06:52:09.393Z,51.29
2022-12-12T06:58:56.017Z,51.30
2022-12-12T07:05:44.124Z,51.32
2022-12-12T07:12:29.536Z,51.10
2022-12-12T07:19:15.021Z,51.22
2022-12-12T07:26:05.685Z,50.99
2022-12-12T07:32:51.267Z,51.06
2022-12-12T07:39:37.537Z,51.07
2022-12-12T07:46:28.299Z,51.17
2022-12-12T07:53:13.765Z,51.11
2022-12-12T08:00:00.075Z,51.26
2022-12-12T08:06:49.379Z,51.14
2022-12-12T08:13:38.835Z,51.16
2022-12-12T08:20:25.320Z,51.13
2022-12-12T08:27:15.720Z,51.51
2022-12-12T08:34:03.348Z,51.27
2022-12-12T08:40:48.742Z,51.40
2022-12-12T08:47:36.774Z,51.39
2022-12-12T08:54:22.400Z,51.37
2022-12-12T09:01:14.164Z,51.40
2022-12-12T09:08:02.704Z,51.64
2022-12-12T09:14:48.153Z,51.40
2022-12-12T09:21:33.538Z,51.48
2022-12-12T09:28:24.720Z,51.74
2022-12-12T09:35:11.788Z,51.57
2022-12-12T09:41:57.826Z,51.55
2022-12-12T09:48:48.918Z,51.80
2022-12-12T09:55:43.284Z,51.84
2022-12-12T10:03:07.587Z,51.71
2022-12-12T10:10:07.219Z,51.53
2022-12-12T10:16:57.837Z,51.61
2022-12-12T10:23:50.727Z,51.39
2022-12-12T10:30:49.712Z,51.39
2022-12-12T10:37:50.937Z,51.49
2022-12-12T10:45:10.872Z,51.65
2022-12-12T10:52:02.787Z,51.85
2022-12-12T10:58:55.899Z,51.61
2022-12-12T11:05:44.332Z,51.57
2022-12-12T11:12:39.205Z,51.74
2022-12-12T11:19:27.327Z,51.70
2022-12-12T11:26:18.882Z,51.28
2022-12-12T11:33:10.748Z,51.69
2022-12-12T11:39:57.874Z,51.14
2022-12-12T11:46:43.387Z,51.24
2022-12-12T11:53:31.512Z,51.06
2022-12-12T12:00:21.197Z,51.10
2022-12-12T12:07:30.152Z,51.14
2022-12-12T12:14:53.254Z,50.97
2022-12-12T12:21:51.122Z,50.68
2022-12-12T12:29:05.832Z,50.86
2022-12-12T12:36:12.423Z,50.82
2022-12-12T12:43:37.644Z,50.72
2022-12-12T12:50:27.888Z,50.47
2022-12-12T12:57:22.743Z,50.33
2022-12-12T13:04:19.799Z,50.17
2022-12-12T13:11:11.694Z,49.93
2022-12-12T13:18:04.833Z,50.15
2022-12-12T13:25:00.141Z,49.96
2022-12-12T13:32:40.823Z,49.96
2022-12-12T13:39:33.186Z,49.80
2022-12-12T13:46:39.293Z,49.63
2022-12-12T13:53:24.707Z,49.60
2022-12-12T14:00:22.888Z,49.65
2022-12-12T14:07:17.437Z,49.24
2022-12-12T14:14:25.088Z,49.51
2022-12-12T14:21:16.986Z,48.97
2022-12-12T14:28:18.549Z,49.08
2022-12-12T14:35:24.832Z,49.02
2022-12-12T14:42:27.781Z,48.82
2022-12-12T14:49:33.109Z,48.61
2022-12-12T14:56:22.133Z,48.61
2022-12-12T15:03:11.104Z,48.54
2022-12-12T15:09:56.762Z,48.34
2022-12-12T15:16:48.846Z,48.41
2022-12-12T15:23:37.455Z,48.32
2022-12-12T15:30:37.020Z,48.21
2022-12-12T15:37:27.245Z,48.23
2022-12-12T15:44:21.032Z,48.17
2022-12-12T15:51:10.158Z,47.87
2022-12-12T15:57:56.512Z,47.96
2022-12-12T16:04:44.610Z,47.61
2022-12-12T16:11:45.881Z,47.69
2022-12-12T16:18:31.712Z,47.45
2022-12-12T16:25:24.933Z,47.39
2022-12-12T16:32:11.704Z,47.45
2022-12-12T16:38:57.103Z,47.41
2022-12-12T16:45:46.150Z,47.77
2022-12-12T16:52:31.670Z,47.83
2022-12-12T16:59:17.471Z,47.69
2022-12-12T17:06:05.706Z,47.69
2022-12-12T17:12:51.833Z,47.42
2022-12-12T17:19:37.572Z,47.47
2022-12-12T17:26:25.907Z,47.75
2022-12-12T17:33:18.428Z,47.54
2022-12-12T17:40:04.359Z,47.66
2022-12-12T17:46:52.934Z,47.69
2022-12-12T17:53:40.632Z,47.74
2022-12-12T18:00:26.146Z,47.83
2022-12-12T18:07:14.142Z,48.03
2022-12-12T18:14:01.586Z,47.86
2022-12-12T18:20:47.044Z,47.82
2022-12-12T18:27:35.031Z,48.04
2022-12-12T18:34:21.226Z,48.14
2022-12-12T18:41:08.297Z,48.03
2022-12-12T18:47:56.240Z,48.20
2022-12-12T18:54:41.660Z,48.22
2022-12-12T19:01:29.909Z,48.30
2022-12-12T19:08:18.008Z,48.27
2022-12-12T19:15:21.983Z,48.23
2022-12-12T19:22:24.704Z,48.20
2022-12-12T19:29:16.096Z,48.49
2022-12-12T19:36:02.435Z,48.43
2022-12-12T19:42:48.542Z,48.50
2022-12-12T19:49:36.697Z,48.53
2022-12-12T19:56:25.497Z,48.79
2022-12-12T20:03:11.991Z,48.50
2022-12-12T20:10:00.015Z,48.57
2022-12-12T20:16:46.093Z,48.69
2022-12-12T20:23:31.718Z,48.54
2022-12-12T20:30:19.791Z,48.53
2022-12-12T20:37:05.231Z,48.65
2022-12-12T20:43:51.825Z,48.33
2022-12-12T20:50:39.804Z,48.46
2022-12-12T20:57:25.244Z,48.49
2022-12-12T21:04:11.834Z,48.34
2022-12-12T21:10:59.786Z,48.50
2022-12-12T21:17:45.525Z,48.31
2022-12-12T21:24:31.252Z,48.46
2022-12-12T21:31:22.848Z,48.50
2022-12-12T21:38:08.726Z,48.38
2022-12-12T21:44:54.110Z,48.18
2022-12-12T21:51:42.803Z,48.22
2022-12-12T21:58:28.340Z,48.41
2022-12-12T22:05:13.915Z,48.11
2022-12-12T22:12:04.431Z,48.10
2022-12-12T22:18:51.477Z,48.25
2022-12-12T22:25:36.841Z,48.03
2022-12-12T22:32:25.397Z,48.21
2022-12-12T22:39:19.882Z,47.93
2022-12-12T22:46:09.177Z,47.89
2022-12-12T22:52:57.215Z,47.92
2022-12-12T22:59:42.692Z,48.04
2022-12-12T23:06:33.856Z,48.04
2022-12-12T23:13:22.016Z,47.99
2022-12-12T23:20:10.692Z,47.98
2022-12-12T23:26:56.076Z,48.10
2022-12-12T23:33:46.232Z,47.96
2022-12-12T23:40:31.827Z,47.75
2022-12-12T23:47:17.323Z,47.87
2022-12-12T23:54:08.872Z,47.81
